North Star, Ohio
Current Conditions -  °F | °C
As of 10:55 AM on Sunday 21 Dec 2014 (Local Time) from KVES Reporting Station
Scattered Clouds Scattered Clouds  
Wind Chill: 24°   Ceiling: Unl
Heat Index: 32°   Visibility: 7mi
Dew Point: 27°   Wind: 9mph
Humidity: 80%   Direction: 160°SSE
Pressure: 30.29"   Gusts: NA
Location:  40.32°N, 84.57°W
Report Text: KVES 211555Z AUTO 16008KT 7SM SCT050 00/M03 A3029 RMK AO2
Loading
Personal Weather Stations






























Interactive Weather Map New forecast layout! Learn more

10-Day Weather Forecast

Advertisements
Track Severe Weather on mobile